Highest pressure

Not for real navigation. The accuracy of this data is not assured See disclaimer for more information



ICAO NAME COUNTRY WIND Kt GUST Kt VIS m TEMP/DEW C BARO METAR
PASD Sand Point AK United States 5 0 9999 -1/-1 30.79 PASD 251256Z AUTO 16005KT 10SM CAVOK M01/M01 A3079 RMK AO1
PAJC Chignik, Chignik Airport AK United States 0 0 9999 -1/-3 30.79 PAJC 251256Z AUTO 00000KT 10SM CAVOK M01/M03 A3079 RMK AO2 SLPNO T10061028 FZRANO
PAVC 10 0 16000 2/-1 30.78 PAVC 251256Z AUTO 22010KT 10SM FEW019 02/M01 A3078 RMK AO2 SLP430 T00221011 FZRANO
PAPH Port Heiden, Port Heiden Airpo AK United States 7 0 9999 -2/-2 30.78 PAPH 251256Z AUTO 16007KT 10SM CAVOK M02/M02 A3078 RMK AO2 SLP425 T10171017 FZRANO
PAII Egegik, Egegik Airport AK United States 4 0 400 -1/-2 30.77 PAII 251256Z AUTO 25004KT 0.25SM -SN FZFG OVC002 M01/M02 A3077 RMK AO2 SLP422 P0000 T10111017 FZRANO

Show more